TAF Text Data
IDs:
Format:
Raw Decoded Include METAR

Data at: 0243 UTC 29 Nov 2020

KBTV 282320Z 2900/2924 24004KT P6SM BKN060
  FM290500 20006KT P6SM SCT070
  FM291800 18008KT P6SM FEW200